PRIVATE WETTERSTATION BILLIGHEIM-ALLFELD                       ZURCK
Wetterdaten: Sonntag, 09.02.2014
Datum Zeit Temp. A. Temp. A. min Temp. A. max Feuchte A. Luftdruck Regen Wind Richtung Richtung Sonnenschein ET Solar Taupunkt Windchill Windben Empfang
09.02.2014 00:00 4,8 C 4,8 C 4,9 C 88 % 997,0 hPa 0,0 l/m 8,0 km/h (2 Bft) S 180 0 min 0,025 mm 0 W/m 3,0 C 3,4 C 16,1 km/h (3 Bft) 99 %
09.02.2014 00:10 4,7 C 4,7 C 4,8 C 88 % 997,1 hPa 0,0 l/m 6,4 km/h (2 Bft) S 180 0 min 0,000 mm 0 W/m 2,9 C 4,7 C 14,5 km/h (3 Bft) 100 %
09.02.2014 00:20 4,6 C 4,6 C 4,7 C 88 % 997,1 hPa 0,0 l/m 8,0 km/h (2 Bft) S 180 0 min 0,000 mm 0 W/m 2,8 C 3,2 C 17,7 km/h (3 Bft) 100 %
09.02.2014 00:30 4,6 C 4,6 C 4,6 C 88 % 997,2 hPa 0,0 l/m 12,9 km/h (3 Bft) S-SW 202 0 min 0,000 mm 0 W/m 2,8 C -0,2 C 24,1 km/h (4 Bft) 100 %
09.02.2014 00:40 4,6 C 4,6 C 4,6 C 88 % 997,3 hPa 0,0 l/m 11,3 km/h (2 Bft) S-SW 202 0 min 0,000 mm 0 W/m 2,8 C 0,7 C 25,7 km/h (4 Bft) 100 %
09.02.2014 00:50 4,4 C 4,4 C 4,6 C 88 % 997,5 hPa 0,0 l/m 8,0 km/h (2 Bft) S-SW 202 0 min 0,000 mm 0 W/m 2,6 C 3,0 C 20,9 km/h (4 Bft) 100 %
09.02.2014 01:00 4,3 C 4,3 C 4,4 C 88 % 997,4 hPa 0,0 l/m 6,4 km/h (2 Bft) S-SW 202 0 min 0,025 mm 0 W/m 2,5 C 4,3 C 14,5 km/h (3 Bft) 100 %
09.02.2014 01:10 4,1 C 4,1 C 4,3 C 88 % 997,1 hPa 0,0 l/m 3,2 km/h (1 Bft) S-SW 202 0 min 0,000 mm 0 W/m 2,3 C 4,1 C 9,7 km/h (2 Bft) 100 %
09.02.2014 01:20 4,1 C 4,0 C 4,1 C 88 % 997,4 hPa 0,0 l/m 1,6 km/h (1 Bft) S 180 0 min 0,000 mm 0 W/m 2,3 C 4,1 C 6,4 km/h (2 Bft) 91 %
09.02.2014 01:30 3,9 C 3,9 C 4,1 C 89 % 997,3 hPa 0,0 l/m 3,2 km/h (1 Bft) S-SO 157 0 min 0,000 mm 0 W/m 2,3 C 3,9 C 8,0 km/h (2 Bft) 99 %
09.02.2014 01:40 4,0 C 3,9 C 4,0 C 89 % 997,2 hPa 0,0 l/m 6,4 km/h (2 Bft) S-SO 157 0 min 0,000 mm 0 W/m 2,4 C 4,0 C 14,5 km/h (3 Bft) 100 %
09.02.2014 01:50 4,1 C 4,0 C 4,1 C 89 % 997,2 hPa 0,0 l/m 8,0 km/h (2 Bft) S-SO 157 0 min 0,000 mm 0 W/m 2,5 C 2,7 C 16,1 km/h (3 Bft) 100 %
09.02.2014 02:00 3,9 C 3,9 C 4,1 C 89 % 997,3 hPa 0,0 l/m 8,0 km/h (2 Bft) S 180 0 min 0,000 mm 0 W/m 2,3 C 2,4 C 14,5 km/h (3 Bft) 100 %
09.02.2014 02:10 3,8 C 3,8 C 3,9 C 89 % 997,4 hPa 0,0 l/m 6,4 km/h (2 Bft) S 180 0 min 0,000 mm 0 W/m 2,2 C 3,8 C 14,5 km/h (3 Bft) 100 %
09.02.2014 02:20 3,9 C 3,8 C 3,9 C 89 % 997,5 hPa 0,0 l/m 6,4 km/h (2 Bft) S 180 0 min 0,000 mm 0 W/m 2,3 C 3,9 C 14,5 km/h (3 Bft) 100 %
09.02.2014 02:30 4,1 C 3,9 C 4,1 C 89 % 997,3 hPa 0,0 l/m 6,4 km/h (2 Bft) S 180 0 min 0,000 mm 0 W/m 2,5 C 4,1 C 14,5 km/h (3 Bft) 100 %
09.02.2014 02:40 4,1 C 4,0 C 4,1 C 88 % 997,3 hPa 0,0 l/m 4,8 km/h (1 Bft) S-SW 202 0 min 0,000 mm 0 W/m 2,3 C 4,1 C 11,3 km/h (2 Bft) 100 %
09.02.2014 02:50 4,1 C 4,1 C 4,1 C 88 % 997,3 hPa 0,0 l/m 4,8 km/h (1 Bft) S-SO 157 0 min 0,000 mm 0 W/m 2,3 C 4,1 C 11,3 km/h (2 Bft) 100 %
09.02.2014 03:00 4,2 C 4,1 C 4,2 C 88 % 997,2 hPa 0,0 l/m 6,4 km/h (2 Bft) S-SO 157 0 min 0,000 mm 0 W/m 2,4 C 4,2 C 14,5 km/h (3 Bft) 100 %
09.02.2014 03:10 4,2 C 4,2 C 4,2 C 88 % 997,2 hPa 0,0 l/m 8,0 km/h (2 Bft) S-SO 157 0 min 0,000 mm 0 W/m 2,4 C 2,8 C 16,1 km/h (3 Bft) 100 %
09.02.2014 03:20 4,3 C 4,2 C 4,3 C 87 % 997,1 hPa 0,0 l/m 6,4 km/h (2 Bft) S-SO 157 0 min 0,000 mm 0 W/m 2,3 C 4,3 C 14,5 km/h (3 Bft) 90 %
09.02.2014 03:30 4,3 C 4,3 C 4,3 C 87 % 997,3 hPa 0,0 l/m 6,4 km/h (2 Bft) S 180 0 min 0,000 mm 0 W/m 2,3 C 4,3 C 16,1 km/h (3 Bft) 100 %
09.02.2014 03:40 4,2 C 4,2 C 4,3 C 87 % 997,0 hPa 0,0 l/m 4,8 km/h (1 Bft) S 180 0 min 0,000 mm 0 W/m 2,2 C 4,2 C 12,9 km/h (3 Bft) 100 %
09.02.2014 03:50 4,2 C 4,2 C 4,2 C 88 % 997,1 hPa 0,0 l/m 4,8 km/h (1 Bft) S 180 0 min 0,000 mm 0 W/m 2,4 C 4,2 C 11,3 km/h (2 Bft) 100 %
09.02.2014 04:00 4,2 C 4,2 C 4,2 C 88 % 997,2 hPa 0,0 l/m 3,2 km/h (1 Bft) S 180 0 min 0,000 mm 0 W/m 2,4 C 4,2 C 11,3 km/h (2 Bft) 100 %
09.02.2014 04:10 4,1 C 4,1 C 4,2 C 88 % 997,2 hPa 0,0 l/m 3,2 km/h (1 Bft) S 180 0 min 0,000 mm 0 W/m 2,3 C 4,1 C 8,0 km/h (2 Bft) 100 %
09.02.2014 04:20 4,1 C 4,1 C 4,2 C 88 % 997,2 hPa 0,0 l/m 6,4 km/h (2 Bft) S-SO 157 0 min 0,000 mm 0 W/m 2,3 C 4,1 C 16,1 km/h (3 Bft) 100 %
09.02.2014 04:30 4,2 C 4,1 C 4,2 C 88 % 997,2 hPa 0,0 l/m 4,8 km/h (1 Bft) S 180 0 min 0,000 mm 0 W/m 2,4 C 4,2 C 14,5 km/h (3 Bft) 100 %
09.02.2014 04:40 4,1 C 4,1 C 4,2 C 88 % 997,2 hPa 0,0 l/m 3,2 km/h (1 Bft) S-SW 202 0 min 0,000 mm 0 W/m 2,3 C 4,1 C 9,7 km/h (2 Bft) 100 %
09.02.2014 04:50 4,1 C 4,1 C 4,1 C 87 % 997,2 hPa 0,0 l/m 4,8 km/h (1 Bft) S-SW 202 0 min 0,000 mm 0 W/m 2,1 C 4,1 C 14,5 km/h (3 Bft) 100 %
09.02.2014 05:00 4,1 C 4,1 C 4,1 C 87 % 997,5 hPa 0,0 l/m 6,4 km/h (2 Bft) S-SW 202 0 min 0,000 mm 0 W/m 2,1 C 4,1 C 16,1 km/h (3 Bft) 100 %
09.02.2014 05:10 4,1 C 4,0 C 4,1 C 87 % 997,7 hPa 0,0 l/m 8,0 km/h (2 Bft) S 180 0 min 0,000 mm 0 W/m 2,1 C 2,7 C 16,1 km/h (3 Bft) 90 %
09.02.2014 05:20 4,1 C 4,1 C 4,1 C 85 % 997,6 hPa 0,0 l/m 8,0 km/h (2 Bft) S-SW 202 0 min 0,000 mm 0 W/m 1,8 C 2,7 C 17,7 km/h (3 Bft) 100 %
09.02.2014 05:30 3,9 C 3,9 C 4,1 C 85 % 997,6 hPa 0,0 l/m 9,7 km/h (2 Bft) S 180 0 min 0,000 mm 0 W/m 1,6 C 1,1 C 17,7 km/h (3 Bft) 100 %
09.02.2014 05:40 3,7 C 3,7 C 3,9 C 85 % 997,5 hPa 0,0 l/m 8,0 km/h (2 Bft) S-SW 202 0 min 0,000 mm 0 W/m 1,4 C 2,2 C 16,1 km/h (3 Bft) 100 %
09.02.2014 05:50 3,4 C 3,4 C 3,7 C 86 % 997,5 hPa 0,0 l/m 9,7 km/h (2 Bft) S-SW 202 0 min 0,000 mm 0 W/m 1,3 C 0,5 C 19,3 km/h (3 Bft) 100 %
09.02.2014 06:00 3,2 C 3,2 C 3,4 C 86 % 997,5 hPa 0,0 l/m 8,0 km/h (2 Bft) S-SW 202 0 min 0,025 mm 0 W/m 1,1 C 1,7 C 20,9 km/h (4 Bft) 100 %
09.02.2014 06:10 3,2 C 3,2 C 3,2 C 86 % 997,7 hPa 0,0 l/m 8,0 km/h (2 Bft) S-SW 202 0 min 0,000 mm 0 W/m 1,1 C 1,7 C 14,5 km/h (3 Bft) 99 %
09.02.2014 06:20 3,1 C 3,1 C 3,2 C 86 % 997,6 hPa 0,0 l/m 6,4 km/h (2 Bft) S-SW 202 0 min 0,000 mm 0 W/m 1,0 C 3,1 C 11,3 km/h (2 Bft) 100 %
09.02.2014 06:30 3,1 C 3,1 C 3,1 C 86 % 997,7 hPa 0,0 l/m 4,8 km/h (1 Bft) S-SW 202 0 min 0,000 mm 0 W/m 1,0 C 3,1 C 11,3 km/h (2 Bft) 100 %
09.02.2014 06:40 3,1 C 3,1 C 3,1 C 86 % 997,8 hPa 0,0 l/m 4,8 km/h (1 Bft) S-SW 202 0 min 0,000 mm 0 W/m 1,0 C 3,1 C 11,3 km/h (2 Bft) 100 %
09.02.2014 06:50 2,9 C 2,9 C 3,1 C 87 % 997,8 hPa 0,0 l/m 4,8 km/h (1 Bft) S 180 0 min 0,000 mm 0 W/m 1,0 C 2,9 C 9,7 km/h (2 Bft) 100 %
09.02.2014 07:00 3,1 C 2,9 C 3,1 C 86 % 997,8 hPa 0,0 l/m 4,8 km/h (1 Bft) S-SO 157 0 min 0,000 mm 0 W/m 1,0 C 3,1 C 11,3 km/h (2 Bft) 89 %
09.02.2014 07:10 3,3 C 3,1 C 3,3 C 84 % 997,9 hPa 0,0 l/m 4,8 km/h (1 Bft) S-SO 157 0 min 0,000 mm 0 W/m 0,9 C 3,3 C 12,9 km/h (3 Bft) 100 %
09.02.2014 07:20 3,3 C 3,3 C 3,3 C 84 % 998,1 hPa 0,0 l/m 6,4 km/h (2 Bft) S-SO 157 0 min 0,000 mm 0 W/m 0,9 C 3,3 C 12,9 km/h (3 Bft) 100 %
09.02.2014 07:30 3,3 C 3,2 C 3,3 C 84 % 998,1 hPa 0,0 l/m 6,4 km/h (2 Bft) S-SO 157 0 min 0,000 mm 0 W/m 0,9 C 3,3 C 16,1 km/h (3 Bft) 100 %
09.02.2014 07:40 3,2 C 3,2 C 3,3 C 84 % 998,2 hPa 0,0 l/m 4,8 km/h (1 Bft) S 180 0 min 0,000 mm 0 W/m 0,8 C 3,2 C 11,3 km/h (2 Bft) 100 %
09.02.2014 07:50 3,1 C 3,1 C 3,2 C 84 % 998,2 hPa 0,0 l/m 4,8 km/h (1 Bft) S 180 0 min 0,000 mm 0 W/m 0,7 C 3,1 C 9,7 km/h (2 Bft) 100 %
09.02.2014 08:00 3,1 C 3,1 C 3,1 C 84 % 998,3 hPa 0,0 l/m 4,8 km/h (1 Bft) S-SO 157 0 min 0,000 mm 0 W/m 0,7 C 3,1 C 16,1 km/h (3 Bft) 100 %
09.02.2014 08:10 3,2 C 3,1 C 3,2 C 83 % 998,5 hPa 0,0 l/m 6,4 km/h (2 Bft) S 180 0 min 0,000 mm 0 W/m 0,6 C 3,2 C 14,5 km/h (3 Bft) 100 %
09.02.2014 08:20 3,2 C 3,2 C 3,2 C 83 % 998,6 hPa 0,0 l/m 6,4 km/h (2 Bft) S 180 0 min 0,000 mm 7 W/m 0,6 C 3,2 C 19,3 km/h (3 Bft) 100 %
09.02.2014 08:30 3,2 C 3,2 C 3,2 C 83 % 998,7 hPa 0,0 l/m 6,4 km/h (2 Bft) S 180 0 min 0,000 mm 21 W/m 0,6 C 3,2 C 16,1 km/h (3 Bft) 100 %
09.02.2014 08:40 3,3 C 3,2 C 3,3 C 82 % 998,8 hPa 0,0 l/m 6,4 km/h (2 Bft) S 180 0 min 0,000 mm 25 W/m 0,5 C 3,3 C 19,3 km/h (3 Bft) 100 %
09.02.2014 08:50 3,3 C 3,3 C 3,4 C 83 % 998,7 hPa 0,0 l/m 4,8 km/h (1 Bft) S 180 0 min 0,000 mm 16 W/m 0,7 C 3,3 C 11,3 km/h (2 Bft) 90 %
09.02.2014 09:00 3,3 C 3,3 C 3,4 C 83 % 998,8 hPa 0,0 l/m 4,8 km/h (1 Bft) S-SW 202 0 min 0,025 mm 26 W/m 0,7 C 3,3 C 16,1 km/h (3 Bft) 100 %
09.02.2014 09:10 3,6 C 3,3 C 3,6 C 82 % 998,8 hPa 0,0 l/m 9,7 km/h (2 Bft) S-SW 202 0 min 0,000 mm 40 W/m 0,8 C 0,8 C 20,9 km/h (4 Bft) 100 %
09.02.2014 09:20 3,7 C 3,6 C 3,7 C 81 % 998,8 hPa 0,0 l/m 9,7 km/h (2 Bft) S 180 0 min 0,000 mm 54 W/m 0,7 C 0,9 C 20,9 km/h (4 Bft) 100 %
09.02.2014 09:30 3,9 C 3,8 C 3,9 C 79 % 998,9 hPa 0,0 l/m 8,0 km/h (2 Bft) S 180 0 min 0,000 mm 51 W/m 0,6 C 2,4 C 17,7 km/h (3 Bft) 100 %
09.02.2014 09:40 3,9 C 3,9 C 4,0 C 80 % 999,1 hPa 0,0 l/m 6,4 km/h (2 Bft) S 180 0 min 0,000 mm 37 W/m 0,8 C 3,9 C 16,1 km/h (3 Bft) 100 %
09.02.2014 09:50 4,1 C 3,9 C 4,1 C 79 % 999,3 hPa 0,0 l/m 6,4 km/h (2 Bft) S-SO 157 0 min 0,000 mm 54 W/m 0,8 C 4,1 C 14,5 km/h (3 Bft) 100 %
09.02.2014 10:00 4,3 C 4,1 C 4,3 C 78 % 999,3 hPa 0,0 l/m 8,0 km/h (2 Bft) S 180 0 min 0,025 mm 83 W/m 0,8 C 2,9 C 20,9 km/h (4 Bft) 100 %
09.02.2014 10:10 4,5 C 4,3 C 4,5 C 77 % 999,3 hPa 0,0 l/m 8,0 km/h (2 Bft) S 180 0 min 0,000 mm 97 W/m 0,8 C 3,1 C 17,7 km/h (3 Bft) 100 %
09.02.2014 10:20 4,6 C 4,5 C 4,6 C 76 % 999,4 hPa 0,0 l/m 8,0 km/h (2 Bft) S-SO 157 0 min 0,000 mm 69 W/m 0,7 C 3,2 C 17,7 km/h (3 Bft) 100 %
09.02.2014 10:30 4,6 C 4,6 C 4,7 C 76 % 999,4 hPa 0,0 l/m 9,7 km/h (2 Bft) S-SO 157 0 min 0,000 mm 53 W/m 0,7 C 1,8 C 19,3 km/h (3 Bft) 100 %
09.02.2014 10:40 4,6 C 4,6 C 4,7 C 77 % 999,4 hPa 0,0 l/m 8,0 km/h (2 Bft) S-SW 202 0 min 0,000 mm 63 W/m 0,9 C 3,2 C 17,7 km/h (3 Bft) 98 %
09.02.2014 10:50 4,7 C 4,6 C 4,7 C 77 % 999,5 hPa 0,0 l/m 6,4 km/h (2 Bft) S-SW 202 0 min 0,000 mm 100 W/m 1,0 C 4,7 C 16,1 km/h (3 Bft) 90 %
09.02.2014 11:00 4,8 C 4,7 C 4,8 C 78 % 999,6 hPa 0,0 l/m 8,0 km/h (2 Bft) S-SW 202 0 min 0,051 mm 114 W/m 1,3 C 3,4 C 16,1 km/h (3 Bft) 98 %
09.02.2014 11:10 5,0 C 4,8 C 5,0 C 78 % 999,6 hPa 0,0 l/m 8,0 km/h (2 Bft) S-SW 202 0 min 0,000 mm 139 W/m 1,5 C 3,6 C 14,5 km/h (3 Bft) 99 %
09.02.2014 11:20 5,4 C 5,0 C 5,4 C 74 % 999,6 hPa 0,0 l/m 9,7 km/h (2 Bft) SW 225 0 min 0,000 mm 125 W/m 1,1 C 2,7 C 22,5 km/h (4 Bft) 98 %
09.02.2014 11:30 5,6 C 5,4 C 5,6 C 74 % 999,6 hPa 0,0 l/m 11,3 km/h (2 Bft) S-SW 202 0 min 0,000 mm 132 W/m 1,3 C 1,9 C 20,9 km/h (4 Bft) 98 %
09.02.2014 11:40 5,8 C 5,6 C 5,8 C 73 % 999,6 hPa 0,0 l/m 11,3 km/h (2 Bft) SW 225 0 min 0,000 mm 128 W/m 1,3 C 2,1 C 22,5 km/h (4 Bft) 98 %
09.02.2014 11:50 6,1 C 5,8 C 6,1 C 71 % 999,5 hPa 0,0 l/m 12,9 km/h (3 Bft) SW 225 10 min 0,000 mm 211 W/m 1,2 C 1,5 C 22,5 km/h (4 Bft) 98 %
09.02.2014 12:00 6,3 C 6,1 C 6,3 C 71 % 999,6 hPa 0,0 l/m 11,3 km/h (2 Bft) SW 225 10 min 0,076 mm 229 W/m 1,4 C 2,7 C 27,4 km/h (4 Bft) 97 %
09.02.2014 12:10 6,7 C 6,3 C 6,7 C 70 % 999,7 hPa 0,0 l/m 12,9 km/h (3 Bft) SW 225 10 min 0,000 mm 290 W/m 1,6 C 2,2 C 33,8 km/h (5 Bft) 97 %
09.02.2014 12:20 6,7 C 6,3 C 6,8 C 66 % 999,8 hPa 0,0 l/m 16,5 km/h (3 Bft) W 260 0 min 0,000 mm 97 W/m 0,8 C 0,4 C 32,2 km/h (5 Bft) 100 %
09.02.2014 12:30 6,5 C 6,5 C 6,7 C 69 % 999,9 hPa 0,0 l/m 11,9 km/h (2 Bft) W-SW 251 0 min 0,000 mm 81 W/m 1,2 C 2,5 C 24,1 km/h (4 Bft) 100 %
09.02.2014 12:40 6,3 C 6,3 C 6,5 C 67 % 999,9 hPa 0,0 l/m 13,2 km/h (3 Bft) S-SW 211 0 min 0,000 mm 72 W/m 0,6 C 1,6 C 32,2 km/h (5 Bft) 100 %
09.02.2014 12:50 6,2 C 6,2 C 6,3 C 67 % 999,9 hPa 0,0 l/m 14,1 km/h (3 Bft) W 273 0 min 0,000 mm 114 W/m 0,5 C 1,0 C 35,4 km/h (5 Bft) 100 %
09.02.2014 13:00 6,3 C 6,2 C 6,3 C 66 % 999,9 hPa 0,0 l/m 16,6 km/h (3 Bft) SW 229 10 min 0,078 mm 158 W/m 0,4 C -0,1 C 38,6 km/h (5 Bft) 100 %
09.02.2014 13:10 6,8 C 6,3 C 6,8 C 65 % 999,7 hPa 0,0 l/m 14,0 km/h (3 Bft) SW 217 0 min 0,000 mm 113 W/m 0,7 C 1,8 C 35,4 km/h (5 Bft) 99 %
09.02.2014 13:20 6,6 C 6,6 C 6,8 C 65 % 999,7 hPa 0,0 l/m 15,7 km/h (3 Bft) SW 220 0 min 0,000 mm 60 W/m 0,5 C 0,7 C 33,8 km/h (5 Bft) 98 %
09.02.2014 13:30 6,3 C 6,3 C 6,6 C 67 % 999,8 hPa 0,0 l/m 16,2 km/h (3 Bft) SW 220 0 min 0,000 mm 26 W/m 0,6 C 0,1 C 32,2 km/h (5 Bft) 93 %
09.02.2014 13:40 5,7 C 5,7 C 6,3 C 74 % 1000,0 hPa 0,1 l/m 19,3 km/h (3 Bft) W 266 0 min 0,000 mm 74 W/m 1,4 C -2,0 C 33,8 km/h (5 Bft) 100 %
09.02.2014 13:50 4,7 C 4,7 C 5,7 C 79 % 1000,1 hPa 0,0 l/m 12,9 km/h (3 Bft) SW 230 0 min 0,000 mm 72 W/m 1,4 C -0,1 C 27,4 km/h (4 Bft) 100 %
09.02.2014 14:00 4,8 C 4,6 C 4,8 C 83 % 999,9 hPa 0,0 l/m 10,0 km/h (2 Bft) W-SW 237 10 min 0,000 mm 338 W/m 2,2 C 1,9 C 24,1 km/h (4 Bft) 99 %
09.02.2014 14:10 5,7 C 4,8 C 5,7 C 79 % 999,8 hPa 0,0 l/m 12,5 km/h (3 Bft) SW 217 10 min 0,102 mm 343 W/m 2,3 C 1,3 C 24,1 km/h (4 Bft) 99 %
09.02.2014 14:20 6,2 C 5,7 C 6,2 C 75 % 999,7 hPa 0,0 l/m 12,2 km/h (2 Bft) S-SW 202 0 min 0,000 mm 84 W/m 2,1 C 2,0 C 25,7 km/h (4 Bft) 100 %
09.02.2014 14:30 6,1 C 6,0 C 6,2 C 74 % 999,6 hPa 0,0 l/m 11,1 km/h (2 Bft) SW 220 0 min 0,000 mm 46 W/m 1,8 C 2,6 C 20,9 km/h (4 Bft) 100 %
09.02.2014 14:40 5,9 C 5,9 C 6,1 C 77 % 999,8 hPa 0,1 l/m 9,9 km/h (2 Bft) W-SW 251 0 min 0,000 mm 105 W/m 2,2 C 3,1 C 27,4 km/h (4 Bft) 91 %
09.02.2014 14:50 5,4 C 5,4 C 5,9 C 78 % 999,8 hPa 0,0 l/m 9,5 km/h (2 Bft) W 261 0 min 0,000 mm 46 W/m 1,9 C 2,9 C 24,1 km/h (4 Bft) 100 %
09.02.2014 15:00 5,2 C 5,2 C 5,4 C 79 % 1000,0 hPa 0,0 l/m 8,8 km/h (2 Bft) W-SW 250 0 min 0,000 mm 26 W/m 1,9 C 3,2 C 19,3 km/h (3 Bft) 100 %
09.02.2014 15:10 4,9 C 4,9 C 5,2 C 81 % 1000,2 hPa 0,2 l/m 16,7 km/h (3 Bft) W 269 10 min 0,076 mm 388 W/m 1,9 C -1,9 C 48,3 km/h (6 Bft) 100 %
09.02.2014 15:20 5,2 C 4,9 C 5,2 C 81 % 1000,1 hPa 0,0 l/m 11,2 km/h (2 Bft) W 264 10 min 0,000 mm 265 W/m 2,2 C 1,5 C 32,2 km/h (5 Bft) 100 %
09.02.2014 15:30 5,2 C 5,2 C 5,3 C 79 % 1000,1 hPa 0,0 l/m 12,6 km/h (3 Bft) SW 217 0 min 0,000 mm 95 W/m 1,9 C 0,6 C 20,9 km/h (4 Bft) 100 %
09.02.2014 15:40 5,7 C 5,2 C 5,7 C 78 % 1000,0 hPa 0,0 l/m 11,1 km/h (2 Bft) S-SW 209 0 min 0,000 mm 28 W/m 2,2 C 2,1 C 25,7 km/h (4 Bft) 100 %
09.02.2014 15:50 5,5 C 5,5 C 5,7 C 77 % 1000,0 hPa 0,0 l/m 9,5 km/h (2 Bft) W-SW 241 10 min 0,000 mm 199 W/m 1,8 C 3,0 C 17,7 km/h (3 Bft) 100 %
09.02.2014 16:00 5,5 C 5,5 C 5,6 C 75 % 1000,0 hPa 0,0 l/m 8,2 km/h (2 Bft) S-SW 207 0 min 0,000 mm 44 W/m 1,4 C 4,0 C 19,3 km/h (3 Bft) 100 %
09.02.2014 16:10 5,5 C 5,4 C 5,5 C 72 % 1000,3 hPa 0,0 l/m 14,5 km/h (3 Bft) W-SW 246 0 min 0,076 mm 7 W/m 0,9 C -0,1 C 32,2 km/h (5 Bft) 100 %
09.02.2014 16:20 5,1 C 5,1 C 5,5 C 77 % 1000,4 hPa 0,0 l/m 23,4 km/h (4 Bft) W-SW 256 0 min 0,000 mm 105 W/m 1,4 C -4,3 C 49,9 km/h (6 Bft) 100 %
09.02.2014 16:30 4,9 C 4,9 C 5,1 C 77 % 1000,4 hPa 0,0 l/m 14,9 km/h (3 Bft) S-SW 209 0 min 0,000 mm 54 W/m 1,2 C -1,0 C 27,4 km/h (4 Bft) 100 %
09.02.2014 16:40 4,8 C 4,8 C 5,0 C 76 % 1000,4 hPa 0,0 l/m 11,6 km/h (2 Bft) SW 225 0 min 0,000 mm 26 W/m 0,9 C 0,8 C 25,7 km/h (4 Bft) 100 %
09.02.2014 16:50 4,5 C 4,5 C 4,8 C 77 % 1000,7 hPa 0,0 l/m 12,7 km/h (3 Bft) W-SW 239 0 min 0,000 mm 25 W/m 0,8 C -0,2 C 22,5 km/h (4 Bft) 100 %
09.02.2014 17:00 4,5 C 4,4 C 4,5 C 75 % 1000,7 hPa 0,0 l/m 12,9 km/h (3 Bft) SW 215 0 min 0,000 mm 16 W/m 0,5 C -0,4 C 33,8 km/h (5 Bft) 100 %
09.02.2014 17:10 4,4 C 4,4 C 4,5 C 75 % 1000,7 hPa 0,0 l/m 9,7 km/h (2 Bft) W-SW 257 0 min 0,051 mm 7 W/m 0,4 C 1,6 C 33,8 km/h (5 Bft) 100 %
09.02.2014 17:20 4,2 C 4,2 C 4,4 C 76 % 1000,7 hPa 0,0 l/m 2,6 km/h (1 Bft) W 259 0 min 0,000 mm 0 W/m 0,4 C 4,2 C 17,7 km/h (3 Bft) 100 %
09.02.2014 17:30 4,1 C 4,1 C 4,2 C 76 % 1001,1 hPa 0,0 l/m 3,0 km/h (1 Bft) W 259 0 min 0,000 mm 0 W/m 0,3 C 4,1 C 9,7 km/h (2 Bft) 100 %
09.02.2014 17:40 4,0 C 4,0 C 4,1 C 80 % 1001,7 hPa 0,2 l/m 9,0 km/h (2 Bft) NW 308 0 min 0,000 mm 0 W/m 0,9 C 1,7 C 22,5 km/h (4 Bft) 100 %
09.02.2014 17:50 2,8 C 2,8 C 4,0 C 84 % 1002,0 hPa 1,0 l/m 13,5 km/h (3 Bft) W 265 0 min 0,000 mm 0 W/m 0,4 C -2,7 C 27,4 km/h (4 Bft) 99 %
09.02.2014 18:00 1,7 C 1,7 C 2,8 C 86 % 1002,0 hPa 0,4 l/m 10,0 km/h (2 Bft) W-SW 252 0 min 0,000 mm 0 W/m -0,4 C -1,6 C 35,4 km/h (5 Bft) 99 %
09.02.2014 18:10 1,2 C 1,2 C 1,7 C 88 % 1001,9 hPa 0,4 l/m 7,9 km/h (2 Bft) W-SW 240 0 min 0,025 mm 0 W/m -0,6 C -0,3 C 17,7 km/h (3 Bft) 100 %
09.02.2014 18:20 1,2 C 1,1 C 1,2 C 88 % 1001,9 hPa 0,2 l/m 10,8 km/h (2 Bft) S-SW 211 0 min 0,000 mm 0 W/m -0,6 C -2,7 C 25,7 km/h (4 Bft) 100 %
09.02.2014 18:30 1,3 C 1,2 C 1,3 C 88 % 1002,0 hPa 0,0 l/m 11,4 km/h (2 Bft) S-SW 209 0 min 0,000 mm 0 W/m -0,5 C -3,1 C 20,9 km/h (4 Bft) 100 %
09.02.2014 18:40 1,3 C 1,3 C 1,3 C 88 % 1002,0 hPa 0,0 l/m 5,8 km/h (2 Bft) S-SW 203 0 min 0,000 mm 0 W/m -0,5 C 1,3 C 11,3 km/h (2 Bft) 100 %
09.02.2014 18:50 1,2 C 1,2 C 1,3 C 88 % 1002,1 hPa 0,0 l/m 1,0 km/h (0 Bft) S-SO 163 0 min 0,000 mm 0 W/m -0,6 C 1,2 C 6,4 km/h (2 Bft) 100 %
09.02.2014 19:00 1,2 C 1,2 C 1,2 C 88 % 1002,2 hPa 0,0 l/m 0,4 km/h (0 Bft) S 190 0 min 0,000 mm 0 W/m -0,6 C 1,2 C 4,8 km/h (1 Bft) 99 %
09.02.2014 19:10 1,2 C 1,2 C 1,2 C 88 % 1002,0 hPa 0,0 l/m 3,0 km/h (1 Bft) SO 146 0 min 0,000 mm 0 W/m -0,6 C 1,2 C 8,0 km/h (2 Bft) 100 %
09.02.2014 19:20 1,4 C 1,2 C 1,4 C 88 % 1002,2 hPa 0,2 l/m 7,0 km/h (2 Bft) S-SO 156 0 min 0,000 mm 0 W/m -0,4 C 0,8 C 17,7 km/h (3 Bft) 100 %
09.02.2014 19:30 1,7 C 1,4 C 1,7 C 88 % 1002,0 hPa 0,4 l/m 8,2 km/h (2 Bft) S-SO 163 0 min 0,000 mm 0 W/m -0,1 C -0,0 C 16,1 km/h (3 Bft) 100 %
09.02.2014 19:40 1,8 C 1,7 C 1,8 C 88 % 1002,1 hPa 0,0 l/m 8,7 km/h (2 Bft) S-SO 160 0 min 0,000 mm 0 W/m 0,0 C -0,4 C 17,7 km/h (3 Bft) 100 %
09.02.2014 19:50 1,9 C 1,8 C 1,9 C 88 % 1002,0 hPa 0,2 l/m 8,4 km/h (2 Bft) S-SO 158 0 min 0,000 mm 0 W/m 0,1 C -0,0 C 17,7 km/h (3 Bft) 100 %
09.02.2014 20:00 1,9 C 1,9 C 1,9 C 88 % 1002,1 hPa 0,2 l/m 6,0 km/h (2 Bft) S-SO 168 0 min 0,000 mm 0 W/m 0,1 C 1,9 C 14,5 km/h (3 Bft) 100 %
09.02.2014 20:10 1,9 C 1,9 C 1,9 C 88 % 1002,1 hPa 0,0 l/m 3,7 km/h (1 Bft) S 186 0 min 0,000 mm 0 W/m 0,1 C 1,9 C 11,3 km/h (2 Bft) 100 %
09.02.2014 20:20 1,8 C 1,8 C 1,9 C 88 % 1002,3 hPa 0,6 l/m 2,0 km/h (1 Bft) W-SW 248 0 min 0,000 mm 0 W/m 0,0 C 1,8 C 6,4 km/h (2 Bft) 100 %
09.02.2014 20:30 1,4 C 1,4 C 1,8 C 88 % 1002,1 hPa 0,8 l/m 5,2 km/h (1 Bft) S 183 0 min 0,000 mm 0 W/m -0,4 C 1,4 C 11,3 km/h (2 Bft) 100 %
09.02.2014 20:40 1,2 C 1,2 C 1,4 C 88 % 1002,0 hPa 0,2 l/m 4,4 km/h (1 Bft) S-SO 163 0 min 0,000 mm 0 W/m -0,6 C 1,2 C 11,3 km/h (2 Bft) 100 %
09.02.2014 20:50 1,2 C 1,2 C 1,2 C 88 % 1002,7 hPa 0,0 l/m 3,6 km/h (1 Bft) W-NW 286 0 min 0,000 mm 0 W/m -0,6 C 1,2 C 14,5 km/h (3 Bft) 100 %
09.02.2014 21:00 1,3 C 1,2 C 1,3 C 88 % 1002,2 hPa 0,0 l/m 3,9 km/h (1 Bft) SO 145 0 min 0,000 mm 0 W/m -0,5 C 1,3 C 9,7 km/h (2 Bft) 100 %
09.02.2014 21:10 1,2 C 1,2 C 1,3 C 88 % 1002,3 hPa 0,0 l/m 1,6 km/h (1 Bft) S-SO 157 0 min 0,000 mm 0 W/m -0,6 C 1,2 C 4,8 km/h (1 Bft) 98 %
09.02.2014 21:20 1,2 C 1,2 C 1,2 C 88 % 1002,2 hPa 0,0 l/m 0,0 km/h (0 Bft) S-SO 157 0 min 0,000 mm 0 W/m -0,6 C 1,2 C 3,2 km/h (1 Bft) 97 %
09.02.2014 21:30 1,2 C 1,2 C 1,2 C 88 % 1002,5 hPa 0,0 l/m 0,0 km/h (0 Bft) W-NW 292 0 min 0,000 mm 0 W/m -0,6 C 1,2 C 3,2 km/h (1 Bft) 98 %
09.02.2014 21:40 1,1 C 1,1 C 1,2 C 88 % 1002,2 hPa 0,0 l/m 0,0 km/h (0 Bft) N 0 0 min 0,000 mm 0 W/m -0,7 C 1,1 C 0,0 km/h (0 Bft) 97 %
09.02.2014 21:50 1,0 C 1,0 C 1,1 C 88 % 1002,5 hPa 0,0 l/m 0,0 km/h (0 Bft) N 0 0 min 0,000 mm 0 W/m -0,8 C 1,0 C 0,0 km/h (0 Bft) 98 %
09.02.2014 22:00 0,8 C 0,8 C 1,0 C 88 % 1002,4 hPa 0,0 l/m 0,0 km/h (0 Bft) N-NW 337 0 min 0,000 mm 0 W/m -1,0 C 0,8 C 3,2 km/h (1 Bft) 98 %
09.02.2014 22:10 0,5 C 0,5 C 0,7 C 88 % 1002,5 hPa 0,0 l/m 0,0 km/h (0 Bft) N 0 0 min 0,000 mm 0 W/m -1,3 C 0,5 C 0,0 km/h (0 Bft) 97 %
09.02.2014 22:20 0,4 C 0,4 C 0,5 C 88 % 1002,3 hPa 0,0 l/m 0,0 km/h (0 Bft) N-NW 337 0 min 0,000 mm 0 W/m -1,3 C 0,4 C 1,6 km/h (1 Bft) 98 %
09.02.2014 22:30 0,6 C 0,4 C 0,6 C 88 % 1002,3 hPa 0,0 l/m 0,0 km/h (0 Bft) N 360 0 min 0,000 mm 0 W/m -1,2 C 0,6 C 1,6 km/h (1 Bft) 97 %
09.02.2014 22:40 0,4 C 0,4 C 0,6 C 88 % 1002,2 hPa 0,0 l/m 0,0 km/h (0 Bft) N 0 0 min 0,000 mm 0 W/m -1,3 C 0,4 C 0,0 km/h (0 Bft) 98 %
09.02.2014 22:50 0,3 C 0,3 C 0,4 C 88 % 1002,2 hPa 0,0 l/m 0,0 km/h (0 Bft) N 0 0 min 0,000 mm 0 W/m -1,4 C 0,3 C 0,0 km/h (0 Bft) 97 %
09.02.2014 23:00 0,1 C 0,1 C 0,3 C 88 % 1002,2 hPa 0,0 l/m 0,0 km/h (0 Bft) N 0 0 min 0,000 mm 0 W/m -1,6 C 0,1 C 0,0 km/h (0 Bft) 98 %
09.02.2014 23:10 -0,1 C -0,1 C 0,1 C 88 % 1002,1 hPa 0,0 l/m 0,0 km/h (0 Bft) N 0 0 min 0,000 mm 0 W/m -1,8 C -0,1 C 0,0 km/h (0 Bft) 98 %
09.02.2014 23:20 -0,3 C -0,3 C -0,1 C 88 % 1002,1 hPa 0,0 l/m 0,0 km/h (0 Bft) N 360 0 min 0,000 mm 0 W/m -2,0 C -0,3 C 1,6 km/h (1 Bft) 97 %
09.02.2014 23:30 -0,6 C -0,6 C -0,3 C 88 % 1002,1 hPa 0,0 l/m 0,0 km/h (0 Bft) N 0 0 min 0,000 mm 0 W/m -2,3 C -0,6 C 0,0 km/h (0 Bft) 89 %
09.02.2014 23:40 -0,8 C -0,8 C -0,6 C 88 % 1002,2 hPa 0,0 l/m 0,0 km/h (0 Bft) N 360 0 min 0,000 mm 0 W/m -2,5 C -0,8 C 1,6 km/h (1 Bft) 97 %
09.02.2014 23:50 -0,9 C -0,9 C -0,8 C 88 % 1002,3 hPa 0,0 l/m 1,6 km/h (1 Bft) N-NW 337 0 min 0,000 mm 0 W/m -2,6 C -0,9 C 3,2 km/h (1 Bft) 98 %
_ Min-Zeit 23:50 23:50 23:50 13:10 00:00 - 21:20 - - - - - 23:50 16:20 21:40 23:30
Minimum _ -0,9 C -0,9 C -0,8 C 65 % 997,0 hPa - 0,0 km/h (0 Bft) - - - - - -2,6 C -4,3 C 0,0 km/h (0 Bft) 89 %
_ Max-Zeit 12:20 13:20 12:20 01:30 20:50 17:50 16:20 - - 11:50 14:10 15:10 00:00 00:10 16:20 00:10
Maximum _ 6,8 C 6,6 C 6,8 C 89 % 1002,7 hPa 1,0 l/m 23,4 km/h
W-SW (4 Bft)
- - 10 min 0,102 mm 388 W/m 3,0 C 4,7 C 49,9 km/h
W-SW (6 Bft)
100 %
Durchschnitt _ 3,6 C 3,5 C 3,7 C 83 % 999,6 hPa #5,2 l/m 7,3 km/h (2 Bft) S-SW - #1:30 h #0,660 mm 98 W/m 0,9 C 2,0 C 16,9 km/h (3 Bft) 99 %
PRIVATE WETTERSTATION BILLIGHEIM-ALLFELD - www.neckar-odenwald-wetter.de - Holger Sonntag